Time;durP1;ratioP1;P1;durP2;ratioP2;P2;SDS_P1;SDS_P2;PMS_P1;PMS_P2;Temp;Humidity;BMP_temperature;BMP_pressure;BME280_temperature;BME280_humidity;BME280_pressure;Samples;Min_cycle;Max_cycle;Signal;HPM_P1;HPM_P2
2022/05/12 00:01:27;;;;;;;10.02;5.25;;;16.30;99.90;;;;;;5026530;28;20030;-76
2022/05/12 00:03:53;;;;;;;10.73;5.22;;;16.20;99.90;;;;;;5030075;28;20037;-76
2022/05/12 00:06:18;;;;;;;7.15;4.28;;;16.20;99.90;;;;;;5030563;28;20065;-75
2022/05/12 00:08:44;;;;;;;10.02;4.60;;;16.20;99.90;;;;;;5021764;28;20041;-76
2022/05/12 00:11:10;;;;;;;6.43;4.25;;;16.30;99.90;;;;;;5031663;28;20470;-75
2022/05/12 00:13:35;;;;;;;13.35;5.28;;;16.40;99.90;;;;;;5029486;28;20397;-72
2022/05/12 00:16:01;;;;;;;7.68;4.60;;;16.40;99.90;;;;;;5003354;28;20404;-73
2022/05/12 00:18:27;;;;;;;9.73;5.65;;;16.40;99.90;;;;;;5026996;28;20120;-72
2022/05/12 00:20:54;;;;;;;9.48;6.18;;;16.30;99.90;;;;;;5028120;28;20032;-75
2022/05/12 00:23:22;;;;;;;10.85;6.40;;;16.20;99.90;;;;;;5030621;28;20044;-74
2022/05/12 00:25:50;;;;;;;10.02;5.60;;;16.20;99.90;;;;;;5029057;28;20041;-75
2022/05/12 00:28:18;;;;;;;11.88;5.75;;;16.20;99.90;;;;;;5027917;28;20025;-77
2022/05/12 00:30:46;;;;;;;9.07;5.55;;;16.10;99.90;;;;;;5027639;28;20100;-75
2022/05/12 00:33:14;;;;;;;8.27;5.35;;;16.10;99.90;;;;;;5027871;28;20045;-77
2022/05/12 00:35:41;;;;;;;12.88;6.05;;;16.10;99.90;;;;;;5028149;28;20042;-73
2022/05/12 00:38:06;;;;;;;11.30;5.63;;;16.00;99.90;;;;;;5029649;28;20053;-75
2022/05/12 00:40:32;;;;;;;16.05;5.43;;;16.00;99.90;;;;;;5028442;28;20406;-74
2022/05/12 00:43:07;;;;;;;9.57;5.82;;;16.00;99.90;;;;;;5028015;28;20511;-76
2022/05/12 00:45:38;;;;;;;12.57;4.78;;;15.90;99.90;;;;;;5029282;28;20030;-76
2022/05/12 00:48:04;;;;;;;;;;;16.00;99.90;;;;;;5029143;28;20034;-76
2022/05/12 00:50:36;;;;;;;9.68;4.80;;;16.10;99.90;;;;;;5028232;28;20358;-74
2022/05/12 00:53:03;;;;;;;8.75;4.55;;;16.10;99.90;;;;;;5027495;28;20225;-74
2022/05/12 00:55:35;;;;;;;7.90;4.50;;;16.10;99.90;;;;;;5028164;28;20545;-75
2022/05/12 00:58:05;;;;;;;9.55;4.53;;;16.20;99.90;;;;;;5029251;28;20044;-74
2022/05/12 01:00:31;;;;;;;10.57;4.68;;;16.30;99.90;;;;;;5010671;28;20021;-77
2022/05/12 01:03:00;;;;;;;8.40;4.07;;;16.30;99.90;;;;;;5028252;28;20048;-75
2022/05/12 01:05:27;;;;;;;5.30;3.53;;;16.50;97.20;;;;;;5028107;28;20044;-77
2022/05/12 01:07:55;;;;;;;8.00;3.75;;;16.70;97.10;;;;;;5027974;28;20033;-75
2022/05/12 01:10:23;;;;;;;8.35;4.00;;;16.90;96.10;;;;;;5028141;28;20088;-76
2022/05/12 01:12:50;;;;;;;8.27;4.47;;;17.10;95.50;;;;;;5028634;28;20111;-78
2022/05/12 01:15:17;;;;;;;5.30;3.63;;;17.20;95.70;;;;;;5028051;28;20030;-76
2022/05/12 01:17:44;;;;;;;7.45;3.97;;;17.20;94.60;;;;;;5028018;28;20035;-75
2022/05/12 01:20:11;;;;;;;6.68;4.30;;;17.40;94.70;;;;;;5027743;28;20470;-77
2022/05/12 01:22:55;;;;;;;8.20;4.22;;;17.50;93.90;;;;;;5026926;28;20037;-77
2022/05/12 01:25:25;;;;;;;9.02;4.18;;;17.80;93.10;;;;;;5029368;28;20037;-75
2022/05/12 01:27:51;;;;;;;6.45;4.22;;;17.90;93.10;;;;;;5027136;28;20037;-74
2022/05/12 01:30:19;;;;;;;7.78;4.05;;;18.10;92.50;;;;;;5027885;28;20037;-76
2022/05/12 01:32:48;;;;;;;7.82;4.53;;;18.10;92.60;;;;;;5027864;28;20486;-75
2022/05/12 01:35:18;;;;;;;9.52;4.60;;;18.10;92.00;;;;;;5028049;28;20044;-76
2022/05/12 01:37:45;;;;;;;6.90;4.00;;;18.20;91.80;;;;;;5026778;28;20099;-77
2022/05/12 01:40:14;;;;;;;7.57;4.30;;;18.30;91.20;;;;;;5028322;28;20406;-77
2022/05/12 01:42:40;;;;;;;11.15;4.40;;;18.30;91.60;;;;;;5026787;28;20057;-74
2022/05/12 01:45:07;;;;;;;6.82;4.88;;;18.20;92.80;;;;;;5029687;28;20103;-77
2022/05/12 01:47:34;;;;;;;9.68;4.55;;;18.00;93.40;;;;;;5028662;28;20033;-74
2022/05/12 01:50:00;;;;;;;8.27;4.65;;;17.80;93.70;;;;;;5026619;28;20025;-73
2022/05/12 01:52:26;;;;;;;7.65;4.38;;;17.70;93.70;;;;;;5027595;28;20467;-76
2022/05/12 01:54:52;;;;;;;7.50;4.40;;;17.60;94.10;;;;;;5027469;28;20040;-75
2022/05/12 01:57:18;;;;;;;6.03;4.40;;;17.50;94.50;;;;;;5024523;28;20120;-76
2022/05/12 01:59:44;;;;;;;9.18;4.78;;;17.40;95.20;;;;;;5027755;28;20172;-72
2022/05/12 02:02:10;;;;;;;9.23;4.50;;;17.30;95.30;;;;;;5025693;28;20363;-75
2022/05/12 02:04:35;;;;;;;8.90;4.65;;;17.30;94.70;;;;;;5029710;28;20029;-77
2022/05/12 02:07:01;;;;;;;6.72;4.55;;;17.30;95.00;;;;;;5023909;28;20036;-75
2022/05/12 02:09:27;;;;;;;7.28;4.45;;;17.20;95.50;;;;;;5025801;28;20033;-76
2022/05/12 02:11:53;;;;;;;8.23;5.18;;;17.20;95.20;;;;;;5023598;28;20025;-76
2022/05/12 02:14:19;;;;;;;8.20;4.53;;;17.10;95.00;;;;;;5024710;28;20039;-74
2022/05/12 02:16:44;;;;;;;8.88;4.57;;;17.20;94.80;;;;;;5028045;28;20488;-70
2022/05/12 02:19:11;;;;;;;8.30;4.70;;;17.10;94.70;;;;;;5008582;28;20026;-75
2022/05/12 02:21:37;;;;;;;8.60;4.75;;;17.20;94.60;;;;;;5028523;28;20036;-73
2022/05/12 02:24:03;;;;;;;9.15;4.57;;;17.10;94.70;;;;;;5026024;28;20021;-73
2022/05/12 02:26:30;;;;;;;7.63;4.53;;;17.10;94.90;;;;;;5027722;28;20032;-72
2022/05/12 02:28:56;;;;;;;12.23;4.82;;;17.10;94.90;;;;;;5024591;28;20099;-72
2022/05/12 02:31:21;;;;;;;8.55;4.28;;;17.10;94.60;;;;;;5028743;28;20041;-75
2022/05/12 02:33:47;;;;;;;8.25;4.53;;;17.10;94.70;;;;;;5026187;28;20489;-72
2022/05/12 02:36:13;;;;;;;7.53;4.63;;;17.10;95.10;;;;;;5029284;28;20040;-73
2022/05/12 02:38:39;;;;;;;7.70;4.93;;;17.10;95.00;;;;;;5023511;28;20128;-74
2022/05/12 02:41:05;;;;;;;5.90;4.28;;;17.00;96.40;;;;;;5022659;28;20589;-75
2022/05/12 02:43:31;;;;;;;9.77;5.03;;;16.70;97.30;;;;;;5027816;28;20046;-74
2022/05/12 02:46:00;;;;;;;7.32;4.85;;;16.40;98.60;;;;;;5025248;28;20456;-74
2022/05/12 02:48:32;;;;;;;9.57;4.65;;;16.30;98.90;;;;;;5027312;28;20022;-73
2022/05/12 02:50:58;;;;;;;9.00;4.80;;;16.20;99.70;;;;;;5026341;28;20029;-74
2022/05/12 02:53:25;;;;;;;8.48;5.00;;;16.20;99.50;;;;;;5027686;28;20076;-75
2022/05/12 02:55:51;;;;;;;9.75;5.03;;;16.20;99.30;;;;;;5016786;28;20442;-75
2022/05/12 02:58:17;;;;;;;8.85;5.10;;;16.20;99.60;;;;;;5027351;28;20069;-74
2022/05/12 03:00:43;;;;;;;10.25;5.35;;;16.10;99.90;;;;;;5026869;28;20033;-73
2022/05/12 03:03:09;;;;;;;10.65;5.00;;;16.00;99.90;;;;;;5023488;28;20037;-73
2022/05/12 03:05:36;;;;;;;10.57;5.28;;;15.90;99.90;;;;;;5010203;28;20033;-73
2022/05/12 03:08:02;;;;;;;11.85;5.80;;;15.90;99.90;;;;;;5025831;28;20029;-74
2022/05/12 03:10:28;;;;;;;10.32;4.93;;;15.90;99.90;;;;;;5028138;28;20033;-74
2022/05/12 03:12:54;;;;;;;8.10;5.38;;;15.90;99.90;;;;;;5030908;28;20037;-74
2022/05/12 03:15:20;;;;;;;9.50;5.18;;;15.80;99.90;;;;;;5031541;28;20029;-74
2022/05/12 03:17:45;;;;;;;10.55;5.63;;;15.80;99.90;;;;;;5031188;28;20462;-76
2022/05/12 03:20:17;;;;;;;13.38;5.25;;;15.80;99.90;;;;;;5013586;28;20087;-75
2022/05/12 03:22:44;;;;;;;9.57;5.18;;;15.80;99.90;;;;;;5031340;28;20473;-74
2022/05/12 03:25:11;;;;;;;9.95;5.35;;;15.80;99.90;;;;;;5011636;28;20082;-74
2022/05/12 03:27:38;;;;;;;10.63;5.25;;;15.70;99.90;;;;;;5032596;28;20470;-73
2022/05/12 03:30:07;;;;;;;7.88;5.07;;;15.80;99.90;;;;;;5028513;28;20079;-74
2022/05/12 03:32:33;;;;;;;7.30;4.32;;;15.70;99.90;;;;;;5026760;28;20485;-74
2022/05/12 03:34:59;;;;;;;10.45;5.28;;;15.70;99.90;;;;;;5031552;28;20103;-73
2022/05/12 03:37:24;;;;;;;8.40;4.85;;;15.80;99.90;;;;;;5030770;28;20030;-74
2022/05/12 03:39:50;;;;;;;8.68;5.22;;;15.80;99.90;;;;;;5030552;28;20183;-73
2022/05/12 03:42:18;;;;;;;7.65;4.80;;;15.70;99.90;;;;;;5032312;28;20033;-74
2022/05/12 03:44:47;;;;;;;9.18;5.18;;;15.50;99.90;;;;;;5031986;28;20040;-74
2022/05/12 03:47:24;;;;;;;8.77;5.13;;;15.50;99.90;;;;;;5031777;28;20079;-74
2022/05/12 03:49:53;;;;;;;9.60;5.20;;;15.40;99.90;;;;;;5031459;28;20113;-74
2022/05/12 03:52:20;;;;;;;12.10;5.47;;;15.30;99.90;;;;;;5030304;28;20164;-74
2022/05/12 03:54:47;;;;;;;9.35;5.40;;;15.30;99.90;;;;;;5030579;28;20033;-73
2022/05/12 03:57:15;;;;;;;8.60;4.95;;;15.30;99.90;;;;;;5030752;28;20018;-73
2022/05/12 03:59:41;;;;;;;11.20;5.70;;;15.40;99.90;;;;;;5029856;28;20083;-74
2022/05/12 04:02:15;;;;;;;7.13;4.72;;;15.40;99.90;;;;;;5031005;28;20036;-74
2022/05/12 04:04:41;;;;;;;10.27;4.55;;;15.50;99.90;;;;;;5029686;28;20599;-75
2022/05/12 04:07:08;;;;;;;11.32;5.05;;;15.50;99.90;;;;;;5012898;28;20586;-74
2022/05/12 04:09:35;;;;;;;8.98;4.90;;;15.50;99.90;;;;;;5031693;28;20041;-74
2022/05/12 04:12:00;;;;;;;11.13;4.88;;;15.50;99.90;;;;;;5027504;28;20025;-74
2022/05/12 04:14:26;;;;;;;7.40;4.72;;;15.50;99.90;;;;;;5031457;28;20389;-74
2022/05/12 04:16:52;;;;;;;8.63;4.80;;;15.60;99.90;;;;;;5012560;28;20032;-75
2022/05/12 04:19:17;;;;;;;9.13;4.60;;;15.60;99.90;;;;;;5030869;28;20087;-75
2022/05/12 04:21:43;;;;;;;8.43;4.50;;;15.70;99.90;;;;;;5031310;28;20025;-75
2022/05/12 04:24:09;;;;;;;8.07;4.13;;;15.70;99.90;;;;;;5030146;28;20025;-73
2022/05/12 04:26:38;;;;;;;9.68;5.35;;;15.80;99.90;;;;;;5031507;28;20060;-73
2022/05/12 04:29:04;;;;;;;9.13;4.80;;;15.90;99.90;;;;;;5030275;28;20022;-74
2022/05/12 04:31:31;;;;;;;6.03;4.22;;;15.90;99.90;;;;;;5031104;28;20471;-73
2022/05/12 04:36:42;;;;;;;10.05;4.93;;;15.90;99.90;;;;;;5031038;28;20092;-74
2022/05/12 04:39:08;;;;;;;11.40;5.38;;;16.10;99.90;;;;;;5029359;28;20111;-74
2022/05/12 04:41:34;;;;;;;7.25;5.00;;;16.10;99.90;;;;;;5031177;28;20029;-74
2022/05/12 04:44:00;;;;;;;9.75;4.55;;;16.20;99.90;;;;;;5025715;28;20549;-75
2022/05/12 04:46:28;;;;;;;11.60;5.43;;;16.40;99.90;;;;;;5024040;28;20504;-73
2022/05/12 04:48:54;;;;;;;7.55;5.05;;;16.40;99.90;;;;;;5024680;28;20021;-76
2022/05/12 04:51:21;;;;;;;7.45;4.40;;;16.50;99.90;;;;;;5030823;28;20053;-74
2022/05/12 04:53:47;;;;;;;7.18;4.40;;;16.60;99.90;;;;;;5027152;28;20044;-73
2022/05/12 04:56:13;;;;;;;8.93;4.53;;;16.70;99.90;;;;;;5028950;28;20106;-74
2022/05/12 04:58:39;;;;;;;9.93;4.68;;;16.70;99.90;;;;;;5029688;28;20443;-74
2022/05/12 05:01:05;;;;;;;10.57;4.43;;;16.70;99.90;;;;;;5027666;28;20032;-73
2022/05/12 05:03:32;;;;;;;5.85;3.55;;;16.80;99.90;;;;;;5029111;28;20584;-72
2022/05/12 05:05:58;;;;;;;7.65;4.25;;;16.80;99.90;;;;;;5008238;28;20037;-73
2022/05/12 05:08:25;;;;;;;7.57;3.88;;;16.90;99.90;;;;;;5028271;28;20096;-74
2022/05/12 05:10:53;;;;;;;6.80;3.63;;;16.90;99.90;;;;;;5026356;28;20033;-75
2022/05/12 05:13:19;;;;;;;8.52;4.13;;;17.10;99.90;;;;;;5020494;28;20042;-74
2022/05/12 05:15:46;;;;;;;12.75;4.55;;;17.20;99.90;;;;;;5016696;28;20037;-74
2022/05/12 05:18:14;;;;;;;4.65;3.60;;;17.20;99.90;;;;;;5027880;28;20040;-73
2022/05/12 05:20:41;;;;;;;6.95;3.30;;;17.20;99.90;;;;;;5028682;28;20026;-74
2022/05/12 05:23:07;;;;;;;6.97;3.17;;;17.20;99.90;;;;;;5027965;28;20037;-74
2022/05/12 05:25:33;;;;;;;8.52;3.55;;;17.20;99.90;;;;;;5015176;28;20045;-73
2022/05/12 05:27:59;;;;;;;5.32;3.30;;;17.30;99.90;;;;;;5014280;28;20029;-72
2022/05/12 05:30:27;;;;;;;7.72;3.60;;;17.30;99.90;;;;;;5027849;28;20454;-75
2022/05/12 05:32:53;;;;;;;7.07;3.47;;;17.30;99.90;;;;;;5028110;28;20037;-74
2022/05/12 05:35:19;;;;;;;7.53;3.60;;;17.40;99.90;;;;;;5027607;28;20040;-76
2022/05/12 05:37:45;;;;;;;7.32;3.38;;;17.60;99.90;;;;;;5029287;28;20034;-73
2022/05/12 05:40:14;;;;;;;6.53;2.90;;;17.80;99.90;;;;;;5027675;28;20038;-74
2022/05/12 05:42:44;;;;;;;9.05;3.42;;;17.90;99.90;;;;;;5027857;28;20029;-73
2022/05/12 05:45:12;;;;;;;7.72;3.05;;;18.00;99.90;;;;;;5012208;28;20044;-73
2022/05/12 05:47:45;;;;;;;7.72;3.60;;;18.20;99.90;;;;;;5028929;28;20044;-73
2022/05/12 05:50:14;;;;;;;4.20;2.88;;;18.30;99.90;;;;;;5028971;28;20108;-73
2022/05/12 05:55:24;;;;;;;3.75;2.15;;;18.40;99.90;;;;;;5029944;28;20124;-72
2022/05/12 05:57:50;;;;;;;4.90;2.97;;;18.40;99.90;;;;;;5029812;28;20108;-72
2022/05/12 06:00:17;;;;;;;7.15;2.78;;;18.60;99.90;;;;;;5029288;28;20606;-72
2022/05/12 06:02:43;;;;;;;4.75;2.00;;;18.70;99.90;;;;;;5028820;28;20041;-72
2022/05/12 06:05:08;;;;;;;6.43;2.35;;;18.70;99.90;;;;;;5028283;28;20071;-74
2022/05/12 06:07:40;;;;;;;6.32;2.50;;;18.60;99.90;;;;;;5029269;28;20406;-72
2022/05/12 06:10:06;;;;;;;3.25;1.95;;;18.40;99.90;;;;;;5028829;28;20080;-72
2022/05/12 06:12:33;;;;;;;6.78;2.20;;;18.30;99.90;;;;;;5029743;28;20073;-74
2022/05/12 06:14:59;;;;;;;5.63;2.00;;;18.30;99.90;;;;;;5028819;28;20037;-72
2022/05/12 06:17:26;;;;;;;5.72;1.75;;;18.40;99.90;;;;;;5011011;28;20402;-74
2022/05/12 06:19:52;;;;;;;5.32;1.52;;;18.50;99.90;;;;;;5011608;28;20033;-74
2022/05/12 06:22:19;;;;;;;5.53;1.63;;;18.50;99.90;;;;;;5028651;28;20018;-72
2022/05/12 06:24:49;;;;;;;3.17;1.35;;;18.50;99.90;;;;;;5011498;28;20021;-73
2022/05/12 06:27:16;;;;;;;6.50;1.90;;;18.40;99.90;;;;;;5009856;28;20432;-72
2022/05/12 06:29:44;;;;;;;4.50;1.48;;;18.40;99.90;;;;;;5028341;28;20036;-73
2022/05/12 06:32:10;;;;;;;3.70;1.52;;;18.50;99.90;;;;;;5024644;28;20110;-72
2022/05/12 06:34:36;;;;;;;5.60;1.90;;;18.50;99.90;;;;;;5009962;28;20044;-71
2022/05/12 06:37:04;;;;;;;4.30;1.50;;;18.50;99.90;;;;;;5026413;28;20033;-73
2022/05/12 06:39:30;;;;;;;3.50;1.45;;;18.60;99.90;;;;;;5029058;28;20085;-73
2022/05/12 06:41:56;;;;;;;3.95;1.70;;;18.60;99.90;;;;;;5029167;28;20022;-73
2022/05/12 06:44:22;;;;;;;9.07;1.73;;;18.70;99.90;;;;;;5028577;28;20036;-74
2022/05/12 06:46:48;;;;;;;10.60;1.65;;;18.70;99.90;;;;;;5030705;28;20381;-72
2022/05/12 06:49:14;;;;;;;2.58;1.40;;;18.80;99.90;;;;;;5032273;28;20106;-72
2022/05/12 06:51:40;;;;;;;3.75;1.35;;;18.90;99.90;;;;;;5031812;28;20030;-72
2022/05/12 06:54:06;;;;;;;1.85;1.27;;;19.00;99.90;;;;;;5032323;28;20026;-72
2022/05/12 06:56:32;;;;;;;3.70;1.40;;;19.00;99.90;;;;;;5033164;28;20030;-71
2022/05/12 06:58:57;;;;;;;5.53;1.88;;;19.10;99.90;;;;;;5032923;28;20092;-74
2022/05/12 07:01:24;;;;;;;2.90;1.35;;;19.00;99.90;;;;;;5032197;28;20032;-73
2022/05/12 07:03:50;;;;;;;2.20;1.40;;;18.90;99.90;;;;;;5032981;28;20053;-73
2022/05/12 07:06:16;;;;;;;2.78;1.48;;;18.90;99.90;;;;;;5012872;28;20549;-72
2022/05/12 07:08:43;;;;;;;9.23;1.73;;;18.90;99.90;;;;;;5031404;28;20120;-73
2022/05/12 07:11:10;;;;;;;3.33;1.50;;;18.90;99.90;;;;;;5029433;28;20024;-74
2022/05/12 07:13:36;;;;;;;3.92;1.42;;;18.90;99.90;;;;;;5030368;28;20033;-73
2022/05/12 07:16:03;;;;;;;4.55;1.73;;;18.90;99.90;;;;;;5029838;28;20393;-75
2022/05/12 07:18:29;;;;;;;3.88;1.70;;;18.80;99.90;;;;;;5032767;28;20040;-72
2022/05/12 07:26:35;;;;;;;4.72;1.77;;;18.70;99.90;;;;;;5027331;28;20036;-72
2022/05/12 07:29:01;;;;;;;2.80;1.48;;;18.70;99.90;;;;;;5030894;28;20070;-73
2022/05/12 07:31:27;;;;;;;8.05;1.77;;;18.70;99.90;;;;;;5030937;28;20036;-73
2022/05/12 07:33:52;;;;;;;2.65;1.35;;;18.60;99.90;;;;;;5031733;28;20033;-73
2022/05/12 07:36:22;;;;;;;5.45;1.63;;;18.70;99.90;;;;;;5027149;28;20037;-74
2022/05/12 07:38:48;;;;;;;2.75;1.40;;;18.70;99.90;;;;;;5031281;28;20057;-73
2022/05/12 07:41:16;;;;;;;5.30;1.83;;;18.70;99.90;;;;;;5015370;28;20104;-73
2022/05/12 07:43:43;;;;;;;4.63;1.50;;;18.80;99.90;;;;;;5032051;28;20657;-72
2022/05/12 07:46:12;;;;;;;5.75;1.80;;;18.90;99.90;;;;;;5030602;28;20406;-72
2022/05/12 07:48:39;;;;;;;3.08;1.40;;;19.00;99.90;;;;;;5030103;28;20033;-74
2022/05/12 07:51:05;;;;;;;4.20;1.45;;;19.30;99.90;;;;;;5031350;28;20463;-74
2022/05/12 07:53:31;;;;;;;9.75;1.73;;;19.50;99.90;;;;;;5032360;28;20621;-74
2022/05/12 07:55:57;;;;;;;4.07;1.52;;;19.70;99.90;;;;;;5031864;28;20032;-73
2022/05/12 07:58:23;;;;;;;3.30;1.60;;;19.80;99.90;;;;;;5028658;28;20041;-73
2022/05/12 08:00:49;;;;;;;4.57;1.50;;;19.80;99.90;;;;;;5029828;28;20025;-72
2022/05/12 08:03:14;;;;;;;5.20;1.48;;;19.90;99.90;;;;;;5029371;28;20037;-72
2022/05/12 08:05:40;;;;;;;2.65;1.30;;;20.00;99.90;;;;;;5030938;28;20025;-72
2022/05/12 08:08:08;;;;;;;4.22;1.63;;;20.30;99.90;;;;;;5030677;28;20033;-73
2022/05/12 08:10:34;;;;;;;7.05;1.60;;;20.50;99.90;;;;;;5031772;28;20037;-72
2022/05/12 08:13:00;;;;;;;3.38;1.73;;;20.60;99.90;;;;;;5031571;28;20561;-73
2022/05/12 08:15:26;;;;;;;4.57;2.47;;;20.80;99.90;;;;;;5031071;28;20140;-73
2022/05/12 08:17:53;;;;;;;5.05;1.42;;;20.90;99.90;;;;;;5031660;28;20109;-73
2022/05/12 08:20:20;;;;;;;6.75;2.05;;;20.80;99.90;;;;;;5030536;28;20133;-72
2022/05/12 08:22:46;;;;;;;3.63;1.80;;;20.80;99.90;;;;;;5031254;28;20498;-73
2022/05/12 08:25:12;;;;;;;4.47;2.10;;;21.00;99.90;;;;;;5030490;28;20421;-73
2022/05/12 08:27:39;;;;;;;4.72;1.80;;;20.90;99.90;;;;;;5031767;28;20065;-73
2022/05/12 08:30:07;;;;;;;2.72;1.98;;;21.00;99.90;;;;;;5030993;28;20025;-75
2022/05/12 08:32:33;;;;;;;5.57;2.17;;;20.90;99.90;;;;;;5030136;28;20032;-75
2022/05/12 08:34:59;;;;;;;2.75;2.00;;;20.90;99.90;;;;;;5031381;28;20129;-72
2022/05/12 08:37:25;;;;;;;3.47;1.98;;;20.80;99.90;;;;;;5030169;28;20132;-72
2022/05/12 08:39:50;;;;;;;4.45;2.08;;;20.60;99.90;;;;;;5013366;28;20058;-73
2022/05/12 08:42:43;;;;;;;7.82;2.25;;;20.50;99.90;;;;;;5012530;28;20467;-74
2022/05/12 08:45:12;;;;;;;5.80;2.55;;;20.20;99.90;;;;;;5030347;28;20474;-75
2022/05/12 08:47:46;;;;;;;4.75;2.33;;;20.20;99.90;;;;;;5030534;28;20025;-74
2022/05/12 08:50:26;;;;;;;3.90;2.35;;;20.30;99.90;;;;;;5030321;28;20037;-73
2022/05/12 08:53:05;;;;;;;4.72;2.35;;;20.40;99.90;;;;;;5030667;28;20033;-73
2022/05/12 08:55:32;;;;;;;5.45;2.13;;;20.30;99.90;;;;;;5030699;28;20137;-73
2022/05/12 08:58:01;;;;;;;7.85;2.40;;;20.50;99.90;;;;;;5030891;28;20041;-72
2022/05/12 09:00:51;;;;;;;4.88;2.28;;;20.90;99.90;;;;;;5030476;28;20033;-74
2022/05/12 09:03:36;;;;;;;4.07;2.30;;;21.20;99.90;;;;;;5028480;28;20417;-72
2022/05/12 09:06:13;;;;;;;5.03;2.40;;;21.20;99.90;;;;;;5012035;28;20533;-74
2022/05/12 09:09:03;;;;;;;6.30;2.50;;;20.80;99.90;;;;;;5031028;28;20037;-72
2022/05/12 09:11:50;;;;;;;5.23;2.80;;;20.50;99.90;;;;;;5029968;28;20146;-73
2022/05/12 09:14:38;;;;;;;8.48;3.17;;;20.50;99.90;;;;;;5029723;28;20298;-72
2022/05/12 09:17:06;;;;;;;4.25;2.45;;;20.20;99.90;;;;;;5030092;28;20053;-74
2022/05/12 09:19:31;;;;;;;7.65;3.00;;;20.00;99.90;;;;;;5029123;28;20040;-73
2022/05/12 09:21:57;;;;;;;8.48;3.00;;;20.10;99.90;;;;;;5030370;28;20030;-73
2022/05/12 09:24:23;;;;;;;5.75;3.63;;;20.20;99.90;;;;;;5029309;28;20034;-73
2022/05/12 09:26:51;;;;;;;5.00;2.90;;;20.10;99.90;;;;;;5028490;28;20087;-73
2022/05/12 09:29:29;;;;;;;4.30;2.63;;;20.00;99.90;;;;;;5029431;28;20034;-72
2022/05/12 09:32:25;;;;;;;5.25;3.13;;;20.00;99.90;;;;;;5030208;28;20033;-72
2022/05/12 09:35:21;;;;;;;4.90;3.25;;;20.20;99.90;;;;;;5029715;28;20468;-73
2022/05/12 09:37:49;;;;;;;9.57;2.92;;;20.40;99.90;;;;;;5029717;28;20500;-73
2022/05/12 09:40:16;;;;;;;5.68;2.80;;;20.50;99.90;;;;;;5029290;28;20045;-72
2022/05/12 09:42:45;;;;;;;5.68;2.97;;;20.50;99.90;;;;;;5027527;28;20577;-73
2022/05/12 09:45:25;;;;;;;8.13;2.95;;;20.70;99.90;;;;;;5029319;28;20480;-74
2022/05/12 09:48:16;;;;;;;8.98;3.20;;;20.80;99.90;;;;;;5029094;28;20063;-73
2022/05/12 09:50:42;;;;;;;6.28;2.72;;;21.10;99.90;;;;;;5012323;28;20041;-74
2022/05/12 09:53:09;;;;;;;16.52;3.47;;;21.40;99.90;;;;;;5029690;28;20484;-75
2022/05/12 09:55:39;;;;;;;8.18;3.20;;;21.30;99.90;;;;;;5029437;28;20037;-72
2022/05/12 09:58:06;;;;;;;4.77;2.90;;;21.30;99.90;;;;;;5012079;28;20021;-74
2022/05/12 10:00:41;;;;;;;7.30;3.42;;;21.50;99.90;;;;;;5028138;28;20108;-73
2022/05/12 10:09:29;;;;;;;5.68;3.55;;;21.70;99.90;;;;;;4948129;29;20035;-72
2022/05/12 10:12:12;;;;;;;7.82;3.58;;;21.80;99.90;;;;;;4948775;29;20508;-73
2022/05/12 10:15:03;;;;;;;8.75;3.20;;;21.90;99.90;;;;;;4985375;28;20042;-73
2022/05/12 10:17:35;;;;;;;4.65;3.03;;;21.80;99.90;;;;;;5028004;28;20026;-72
2022/05/12 10:20:08;;;;;;;7.45;3.78;;;21.50;99.90;;;;;;5029543;28;20115;-75
2022/05/12 10:22:59;;;;;;;8.52;3.90;;;21.30;99.90;;;;;;5028326;28;20112;-73
2022/05/12 10:25:27;;;;;;;4.97;3.05;;;21.60;99.90;;;;;;5028516;28;20436;-73
2022/05/12 10:28:00;;;;;;;4.57;3.38;;;21.70;99.90;;;;;;5028688;28;20032;-73
2022/05/12 10:30:45;;;;;;;8.63;4.00;;;21.90;99.90;;;;;;5028935;28;20037;-71
2022/05/12 10:33:26;;;;;;;8.65;3.50;;;22.20;99.90;;;;;;5028947;28;20479;-77
2022/05/12 10:36:04;;;;;;;6.65;3.65;;;22.10;99.90;;;;;;5029389;28;20036;-74
2022/05/12 10:38:34;;;;;;;8.75;3.25;;;21.90;99.90;;;;;;5028531;28;20061;-72
2022/05/12 10:41:18;;;;;;;9.15;3.80;;;22.30;99.90;;;;;;5028269;28;20429;-73
2022/05/12 10:44:08;;;;;;;8.15;3.70;;;22.40;99.90;;;;;;5029485;28;20057;-72
2022/05/12 10:46:37;;;;;;;7.63;4.07;;;22.50;99.50;;;;;;5028557;28;20261;-74
2022/05/12 10:49:21;;;;;;;6.30;4.25;;;22.70;99.90;;;;;;5028977;28;20508;-73
2022/05/12 10:52:19;;;;;;;7.90;4.10;;;22.80;99.00;;;;;;5029419;28;20127;-72
2022/05/12 10:55:00;;;;;;;11.23;3.97;;;23.10;98.20;;;;;;5029250;28;20037;-72
2022/05/12 10:57:44;;;;;;;10.52;4.00;;;23.20;98.60;;;;;;5027809;28;20065;-71
2022/05/12 11:00:22;;;;;;;6.68;3.75;;;23.10;98.40;;;;;;5029329;28;20072;-73
2022/05/12 11:02:55;;;;;;;10.30;4.22;;;23.40;98.70;;;;;;5029261;28;20044;-72
2022/05/12 11:05:29;;;;;;;5.55;4.28;;;23.50;99.70;;;;;;5028286;28;20541;-72
2022/05/12 11:08:14;;;;;;;8.38;4.40;;;23.50;99.30;;;;;;5028808;28;20043;-71
2022/05/12 11:10:50;;;;;;;7.75;5.03;;;23.60;98.10;;;;;;5025830;28;20137;-72
2022/05/12 11:13:38;;;;;;;11.88;4.97;;;23.70;99.20;;;;;;5028185;28;20044;-77
2022/05/12 11:16:13;;;;;;;10.35;4.57;;;23.70;98.30;;;;;;5029101;28;20080;-72
2022/05/12 11:19:19;;;;;;;7.43;4.07;;;23.20;96.20;;;;;;5028774;28;20032;-71
2022/05/12 11:21:51;;;;;;;9.18;4.53;;;23.20;95.10;;;;;;5027295;28;20037;-71
2022/05/12 11:24:27;;;;;;;10.85;4.50;;;23.30;96.40;;;;;;5028256;28;20037;-74
2022/05/12 11:27:37;;;;;;;8.15;4.65;;;23.60;97.70;;;;;;5028880;28;20025;-72
2022/05/12 11:30:24;;;;;;;6.45;4.63;;;23.70;96.40;;;;;;4929204;29;20488;-74
2022/05/12 11:33:08;;;;;;;8.73;5.28;;;23.10;96.70;;;;;;5023183;28;20045;-73
2022/05/12 11:35:49;;;;;;;7.97;5.05;;;22.90;96.00;;;;;;5030939;28;20651;-71
2022/05/12 11:38:42;;;;;;;7.15;5.07;;;22.80;96.70;;;;;;5031428;28;20080;-76
2022/05/12 11:41:36;;;;;;;7.45;4.93;;;23.10;97.40;;;;;;5032402;28;20091;-71
2022/05/12 11:44:26;;;;;;;16.45;4.40;;;23.30;95.60;;;;;;5020709;28;20049;-73
2022/05/12 11:47:40;;;;;;;11.00;4.93;;;23.30;97.30;;;;;;5012462;28;20475;-73
2022/05/12 11:50:15;;;;;;;8.90;4.38;;;23.30;97.80;;;;;;4983420;28;20037;-71
2022/05/12 11:53:11;;;;;;;9.13;3.95;;;23.50;95.00;;;;;;5011894;28;20057;-72
2022/05/12 11:56:09;;;;;;;7.43;4.28;;;23.30;96.20;;;;;;5011685;28;20022;-71
2022/05/12 11:58:40;;;;;;;7.00;4.35;;;23.00;95.90;;;;;;5011793;28;20033;-72
2022/05/12 12:01:19;;;;;;;8.98;4.82;;;23.40;96.30;;;;;;5029260;28;20053;-72
2022/05/12 12:03:54;;;;;;;8.70;4.63;;;24.00;95.40;;;;;;5031550;28;20029;-72
2022/05/12 12:06:40;;;;;;;13.30;4.72;;;23.80;94.30;;;;;;5030998;28;20417;-72
2022/05/12 12:09:29;;;;;;;10.98;4.90;;;23.60;94.40;;;;;;5029108;28;20132;-71
2022/05/12 12:11:55;;;;;;;7.88;5.03;;;24.00;93.30;;;;;;5016197;28;20049;-71
2022/05/12 12:14:46;;;;;;;6.95;4.60;;;24.50;92.50;;;;;;5030867;28;20041;-73
2022/05/12 12:17:30;;;;;;;9.18;4.95;;;24.80;93.30;;;;;;5020145;28;20042;-71
2022/05/12 12:19:59;;;;;;;8.20;4.95;;;24.40;92.10;;;;;;5031628;28;20029;-71
2022/05/12 12:22:47;;;;;;;9.27;4.95;;;24.30;93.50;;;;;;5030765;28;20033;-72
2022/05/12 12:25:25;;;;;;;6.93;4.57;;;24.40;95.10;;;;;;5030976;28;20041;-74
2022/05/12 12:27:55;;;;;;;6.68;4.50;;;24.40;93.00;;;;;;5031470;28;20100;-75
2022/05/12 12:30:58;;;;;;;8.35;4.78;;;24.00;92.30;;;;;;5030847;28;20634;-75
2022/05/12 12:33:31;;;;;;;10.18;4.28;;;24.30;93.20;;;;;;4999387;28;20458;-72
2022/05/12 12:36:17;;;;;;;7.40;4.93;;;24.60;91.30;;;;;;5030999;28;20033;-73
2022/05/12 12:38:49;;;;;;;7.30;4.70;;;24.50;91.40;;;;;;5029831;28;20053;-72
2022/05/12 12:41:33;;;;;;;11.52;5.00;;;24.10;91.80;;;;;;5031045;28;20056;-73
2022/05/12 12:44:18;;;;;;;8.57;4.63;;;23.70;91.90;;;;;;5030683;28;20541;-72
2022/05/12 12:47:17;;;;;;;9.25;4.70;;;23.40;93.00;;;;;;5030865;28;20072;-73
2022/05/12 12:49:47;;;;;;;8.98;5.50;;;23.20;93.50;;;;;;5030870;28;20045;-72
2022/05/12 12:52:14;;;;;;;6.93;4.80;;;23.40;93.20;;;;;;5030299;28;20071;-73
2022/05/12 12:57:27;;;;;;;8.13;5.18;;;23.30;93.10;;;;;;5030349;28;20452;-71
2022/05/12 12:59:58;;;;;;;6.88;4.63;;;23.30;93.50;;;;;;5030932;28;20036;-71
2022/05/12 13:02:42;;;;;;;9.23;5.07;;;23.70;93.80;;;;;;5012120;28;20025;-71
2022/05/12 13:05:12;;;;;;;10.85;4.88;;;24.00;92.60;;;;;;5030761;28;20116;-72
2022/05/12 13:07:40;;;;;;;7.55;5.00;;;24.00;93.50;;;;;;5028748;28;20656;-73
2022/05/12 13:10:10;;;;;;;10.80;4.60;;;24.10;93.70;;;;;;5030643;28;20072;-72
2022/05/12 13:12:36;;;;;;;9.25;4.80;;;24.40;92.90;;;;;;5029770;28;20041;-72
2022/05/12 13:15:13;;;;;;;10.63;5.38;;;24.60;92.70;;;;;;5029898;28;20103;-74
2022/05/12 13:17:49;;;;;;;6.30;4.55;;;24.80;91.70;;;;;;5029851;28;20109;-71
2022/05/12 13:20:21;;;;;;;9.02;4.65;;;24.80;90.70;;;;;;5030515;28;20083;-71
2022/05/12 13:22:59;;;;;;;10.85;4.50;;;24.60;90.90;;;;;;5030316;28;20079;-72
2022/05/12 13:25:28;;;;;;;8.45;4.45;;;24.90;90.40;;;;;;5029635;28;20053;-73